createdAt,value
2023-05-14T00:00:02.621Z,0.179
2023-05-14T00:05:02.636Z,0.14300000000000002
2023-05-14T00:10:02.573Z,0.113
2023-05-14T00:15:02.605Z,0.111
2023-05-14T00:20:02.651Z,0.106
2023-05-14T00:25:02.598Z,0.109
2023-05-14T00:30:02.781Z,0.113
2023-05-14T00:35:02.767Z,0.153
2023-05-14T00:40:02.766Z,0.167
2023-05-14T00:45:02.844Z,0.164
2023-05-14T00:50:03.215Z,0.135
2023-05-14T00:55:02.617Z,0.116
2023-05-14T01:00:02.633Z,0.13
2023-05-14T01:05:02.691Z,0.128
2023-05-14T01:10:06.189Z,0.129
2023-05-14T01:15:06.248Z,0.13
2023-05-14T01:20:06.385Z,0.164
2023-05-14T01:25:06.301Z,0.177
2023-05-14T01:30:06.374Z,0.177
2023-05-14T01:35:06.121Z,0.15
2023-05-14T01:40:06.168Z,0.126
2023-05-14T01:45:06.282Z,0.113
2023-05-14T01:50:06.146Z,0.111
2023-05-14T01:55:06.149Z,0.111
2023-05-14T02:00:06.226Z,0.111
2023-05-14T02:05:06.995Z,0.147
2023-05-14T02:10:06.252Z,0.165
2023-05-14T02:15:06.167Z,0.167
2023-05-14T02:20:06.218Z,0.135
2023-05-14T02:25:06.206Z,0.11900000000000001
2023-05-14T02:30:06.185Z,0.134
2023-05-14T02:35:06.396Z,0.14200000000000002
2023-05-14T02:40:06.313Z,0.14100000000000001
2023-05-14T02:45:06.332Z,0.14100000000000001
2023-05-14T02:50:06.405Z,0.168
2023-05-14T02:55:06.424Z,0.189
2023-05-14T03:00:06.245Z,0.189
2023-05-14T03:05:06.198Z,0.161
2023-05-14T03:10:06.265Z,0.14300000000000002
2023-05-14T03:15:06.256Z,0.14400000000000002
2023-05-14T03:20:06.300Z,31.806
2023-05-14T03:25:06.236Z,43.06
2023-05-14T03:30:06.234Z,51.225
2023-05-14T03:35:06.219Z,86.014
2023-05-14T03:40:06.294Z,116.61500000000001
2023-05-14T03:45:06.231Z,151.53
2023-05-14T03:50:06.278Z,197.88
2023-05-14T03:55:06.239Z,259.76800000000003
2023-05-14T04:00:06.306Z,319.53700000000003
2023-05-14T04:05:06.363Z,353.884
2023-05-14T04:10:06.380Z,344.37
2023-05-14T04:15:06.489Z,313.194
2023-05-14T04:20:06.415Z,280.374
2023-05-14T04:25:06.493Z,292.181
2023-05-14T04:30:06.291Z,320.92900000000003
2023-05-14T04:35:06.330Z,324.53000000000003
2023-05-14T04:40:06.258Z,333.903
2023-05-14T04:45:06.343Z,357.495
2023-05-14T04:50:06.393Z,356.575
2023-05-14T04:55:06.289Z,359.294
2023-05-14T05:00:06.324Z,326.946
2023-05-14T05:05:06.500Z,307.889
2023-05-14T05:10:06.279Z,320.246
2023-05-14T05:15:06.399Z,386.637
2023-05-14T05:20:06.374Z,537.904
2023-05-14T05:25:06.330Z,651.1850000000001
2023-05-14T05:30:06.395Z,668.514
2023-05-14T05:35:06.520Z,710.571
2023-05-14T05:40:06.449Z,827.91
2023-05-14T05:45:06.533Z,904.5790000000001
2023-05-14T05:50:06.352Z,987.894
2023-05-14T05:55:06.440Z,1091.5720000000001
2023-05-14T06:00:06.411Z,1208.374
2023-05-14T06:05:06.358Z,1335.0910000000001
2023-05-14T06:10:06.396Z,1470.0710000000001
2023-05-14T06:15:06.377Z,1617.761
2023-05-14T06:20:06.438Z,1759.467
2023-05-14T06:25:06.418Z,1908.7830000000001
2023-05-14T06:30:06.402Z,2079.142
2023-05-14T06:35:06.439Z,2225.877
2023-05-14T06:40:06.433Z,2425.053
2023-05-14T06:45:06.409Z,2626.259
2023-05-14T06:50:06.575Z,2831.077
2023-05-14T06:55:06.351Z,3102.41
2023-05-14T07:00:06.358Z,3502.784
2023-05-14T07:05:06.461Z,3123.125
2023-05-14T07:10:06.528Z,2784.736
2023-05-14T07:15:06.564Z,2533.491
2023-05-14T07:20:06.634Z,2069.277
2023-05-14T07:25:06.589Z,1979.426
2023-05-14T07:30:06.613Z,2270.14
2023-05-14T07:35:06.601Z,2771.061
2023-05-14T07:40:06.744Z,2484.848
2023-05-14T07:45:06.507Z,3636.1420000000003
2023-05-14T07:50:06.470Z,2863.75
2023-05-14T07:55:06.855Z,3135.3830000000003
2023-05-14T08:00:06.511Z,2538.214
2023-05-14T08:05:06.453Z,2923.742
2023-05-14T08:10:06.482Z,3077.77
2023-05-14T08:15:06.495Z,3685.331
2023-05-14T08:20:06.529Z,5334.150000000001
2023-05-14T08:25:06.569Z,5122.233
2023-05-14T08:30:06.495Z,4679.115
2023-05-14T08:35:06.484Z,5209.438
2023-05-14T08:40:06.601Z,4268.631
2023-05-14T08:45:06.667Z,5367.948
2023-05-14T08:50:06.638Z,5002.645
2023-05-14T08:55:06.730Z,4631.532
2023-05-14T09:00:06.695Z,3371.059
2023-05-14T09:05:06.744Z,3143.485
2023-05-14T09:10:06.582Z,3416.2780000000002
2023-05-14T09:15:06.561Z,4511.444
2023-05-14T09:20:06.526Z,4448.283
2023-05-14T09:25:06.673Z,5262.741
2023-05-14T09:30:06.580Z,7227.167
2023-05-14T09:35:06.700Z,6843.779
2023-05-14T09:40:06.572Z,7016.0830000000005
2023-05-14T09:45:06.569Z,7386.825
2023-05-14T09:50:06.588Z,6372.323
2023-05-14T09:55:06.748Z,6524.912
2023-05-14T10:00:06.664Z,7520.6140000000005
2023-05-14T10:05:06.590Z,7334.553
2023-05-14T10:10:06.538Z,5946.14
2023-05-14T10:15:06.579Z,7231.659000000001
2023-05-14T10:20:06.644Z,7724.173
2023-05-14T10:25:06.596Z,7779.843
2023-05-14T10:30:06.638Z,7684.953
2023-05-14T10:35:06.682Z,7746.229
2023-05-14T10:40:06.670Z,7371.2480000000005
2023-05-14T10:45:06.740Z,7756.296
2023-05-14T10:50:06.732Z,7146.814
2023-05-14T10:55:06.741Z,6506.723
2023-05-14T11:00:06.648Z,7618.809
2023-05-14T11:05:06.626Z,7421.553
2023-05-14T11:10:06.647Z,7869.719
2023-05-14T11:15:06.690Z,8178.296
2023-05-14T11:20:06.748Z,7736.196
2023-05-14T11:25:06.618Z,7455.539
2023-05-14T11:30:06.840Z,6568.06
2023-05-14T11:35:06.804Z,6311.501
2023-05-14T11:40:06.649Z,6959.403
2023-05-14T11:45:06.672Z,7683.9710000000005
2023-05-14T11:50:08.653Z,7752.926
2023-05-14T11:55:06.715Z,7611.033
2023-05-14T12:00:06.723Z,7541.743
2023-05-14T12:17:30.566Z,7691.231
2023-05-14T12:20:06.717Z,7565
2023-05-14T12:25:06.693Z,7535.62
2023-05-14T12:30:20.404Z,7587.165
2023-05-14T12:35:06.691Z,7551.359
2023-05-14T12:40:06.688Z,7491.475
2023-05-14T12:45:06.903Z,7441.816
2023-05-14T12:50:06.967Z,7033.834
2023-05-14T12:55:06.738Z,7461.157
2023-05-14T13:00:06.881Z,7321.631
2023-05-14T13:05:06.700Z,7226.953
2023-05-14T13:10:00.842Z,7052.905
2023-05-14T13:15:00.856Z,6970.53
2023-05-14T13:20:00.910Z,6899.063
2023-05-14T13:25:00.950Z,6879.341
2023-05-14T13:30:01.035Z,6845.749
2023-05-14T13:35:00.882Z,6760.367
2023-05-14T13:40:00.871Z,5770.808
2023-05-14T13:45:00.895Z,6616.49
2023-05-14T13:50:00.990Z,6515.767
2023-05-14T13:55:00.949Z,6411.494
2023-05-14T14:00:00.944Z,6420.885
2023-05-14T14:05:01.125Z,5957.68
2023-05-14T14:10:00.875Z,6332.843
2023-05-14T14:15:00.895Z,4472.81
2023-05-14T14:20:00.973Z,4533.182
2023-05-14T14:25:01.118Z,3208.1040000000003
2023-05-14T14:30:00.959Z,6005.618
2023-05-14T14:35:01.009Z,5666.848
2023-05-14T14:40:01.066Z,5335.569
2023-05-14T14:45:00.955Z,5230.034000000001
2023-05-14T14:50:00.984Z,5170.933
2023-05-14T14:55:00.972Z,5154.924
2023-05-14T15:00:02.434Z,5024.608
2023-05-14T15:05:00.933Z,4902.696
2023-05-14T15:10:00.971Z,4779.127
2023-05-14T15:15:01.143Z,4658.263
2023-05-14T15:20:00.968Z,4511.368
2023-05-14T15:25:01.058Z,4402.52
2023-05-14T15:30:01.027Z,4265.741
2023-05-14T15:35:00.960Z,4099.733
2023-05-14T15:40:00.973Z,3931.531
2023-05-14T15:45:01.048Z,3771.4320000000002
2023-05-14T15:50:01.127Z,3575.6530000000002
2023-05-14T15:55:01.321Z,3432.457
2023-05-14T16:00:01.056Z,3312.227
2023-05-14T16:05:01.007Z,3155.96
2023-05-14T16:10:01.011Z,3013.612
2023-05-14T16:15:01.026Z,2870.108
2023-05-14T16:20:01.146Z,2713.455
2023-05-14T16:25:03.233Z,2555.636
2023-05-14T16:30:01.518Z,2414.982
2023-05-14T16:35:01.057Z,2266.484
2023-05-14T16:40:01.033Z,2123.6
2023-05-14T16:45:01.094Z,1979.676
2023-05-14T16:50:01.082Z,1839.222
2023-05-14T16:55:01.010Z,1696.977
2023-05-14T17:00:01.221Z,1548.886
2023-05-14T17:05:01.323Z,1417.826
2023-05-14T17:10:01.187Z,1295.0620000000001
2023-05-14T17:15:02.522Z,1166.833
2023-05-14T17:20:01.103Z,1049.813
2023-05-14T17:25:01.134Z,942.807
2023-05-14T17:30:01.101Z,842.168
2023-05-14T17:35:01.074Z,745.005
2023-05-14T17:40:01.528Z,650.796
2023-05-14T17:45:01.234Z,580.628
2023-05-14T17:50:01.099Z,523.686
2023-05-14T17:55:01.075Z,476.107
2023-05-14T18:00:01.061Z,439.407
2023-05-14T18:05:01.128Z,360.271
2023-05-14T18:10:01.064Z,294.373
2023-05-14T18:15:01.161Z,235.35
2023-05-14T18:20:01.150Z,188.87
2023-05-14T18:25:01.194Z,167.29500000000002
2023-05-14T18:30:01.271Z,154.968
2023-05-14T18:35:01.084Z,146.786
2023-05-14T18:40:01.164Z,92.452
2023-05-14T18:45:01.189Z,48.211
2023-05-14T18:50:01.270Z,23.611
2023-05-14T18:55:01.224Z,34.427
2023-05-14T19:00:01.180Z,21.917
2023-05-14T19:05:01.568Z,0.195
2023-05-14T19:10:01.202Z,0.167
2023-05-14T19:15:01.330Z,0.125
2023-05-14T19:20:01.378Z,0.124
2023-05-14T19:25:01.143Z,0.113
2023-05-14T19:30:01.198Z,0.088
2023-05-14T19:35:01.183Z,0.091
2023-05-14T19:40:01.209Z,0.11
2023-05-14T19:45:01.237Z,0.1
2023-05-14T19:50:01.256Z,0.156
2023-05-14T19:55:01.167Z,0.137
2023-05-14T20:00:01.244Z,0.109
2023-05-14T20:05:01.284Z,0.108
2023-05-14T20:10:01.364Z,0.101
2023-05-14T20:15:01.347Z,0.07
2023-05-14T20:20:01.230Z,0.06
2023-05-14T20:25:01.248Z,0.025
2023-05-14T20:30:01.242Z,0.076
2023-05-14T20:35:01.269Z,0.093
2023-05-14T20:40:01.442Z,0.07100000000000001
2023-05-14T20:45:01.260Z,0.049
2023-05-14T20:50:01.274Z,0.055
2023-05-14T20:55:02.248Z,0.058
2023-05-14T21:00:01.319Z,0.061
2023-05-14T21:05:01.539Z,0.056
2023-05-14T21:10:01.457Z,0.054
2023-05-14T21:15:01.530Z,0.10200000000000001
2023-05-14T21:20:01.250Z,0.106
2023-05-14T21:25:01.512Z,0.135
2023-05-14T21:30:01.257Z,0.082
2023-05-14T21:35:01.274Z,0.088
2023-05-14T21:40:01.309Z,0.089
2023-05-14T21:45:01.313Z,0.092
2023-05-14T21:50:01.313Z,0.005
2023-05-14T21:55:01.383Z,0
2023-05-14T22:00:01.513Z,0.034
2023-05-14T22:05:01.470Z,0.154
2023-05-14T22:10:01.518Z,0.15
2023-05-14T22:15:01.352Z,0.115
2023-05-14T22:20:01.361Z,0.106
2023-05-14T22:25:01.341Z,0.106
2023-05-14T22:30:01.334Z,0.10400000000000001
2023-05-14T22:35:01.353Z,0.106
2023-05-14T22:40:01.386Z,0.098
2023-05-14T22:45:01.314Z,0.131
2023-05-14T22:50:01.532Z,0.145
2023-05-14T22:55:01.448Z,0.146
2023-05-14T23:00:01.477Z,0.132
2023-05-14T23:05:01.542Z,0.10300000000000001
2023-05-14T23:10:01.590Z,0.101
2023-05-14T23:15:01.490Z,0.10400000000000001
2023-05-14T23:20:01.428Z,0.111
2023-05-14T23:25:01.435Z,0.126
2023-05-14T23:30:02.833Z,0.147
2023-05-14T23:35:01.371Z,0.165
2023-05-14T23:40:01.352Z,0.163
2023-05-14T23:45:01.373Z,0.139
2023-05-14T23:50:01.446Z,0.11800000000000001
2023-05-14T23:55:01.408Z,0.12
